sensor_id;sensor_type;location;lat;lon;timestamp;pressure;altitude;pressure_sealevel;temperature;humidity
57594;BME280;43423;46.510;6.686;2023-05-23T00:01:29;96297.53;;;14.99;100.00
57594;BME280;43423;46.510;6.686;2023-05-23T00:03:58;96316.88;;;15.04;100.00
57594;BME280;43423;46.510;6.686;2023-05-23T00:06:24;96308.38;;;14.97;100.00
57594;BME280;43423;46.510;6.686;2023-05-23T00:08:49;96296.78;;;14.98;100.00
57594;BME280;43423;46.510;6.686;2023-05-23T00:11:15;96307.53;;;15.07;100.00
57594;BME280;43423;46.510;6.686;2023-05-23T00:13:40;96316.34;;;15.12;100.00
57594;BME280;43423;46.510;6.686;2023-05-23T00:16:08;96299.78;;;15.00;100.00
57594;BME280;43423;46.510;6.686;2023-05-23T00:18:38;96307.06;;;15.09;100.00
57594;BME280;43423;46.510;6.686;2023-05-23T00:21:07;96306.09;;;15.01;100.00
57594;BME280;43423;46.510;6.686;2023-05-23T00:23:34;96306.34;;;14.97;100.00
57594;BME280;43423;46.510;6.686;2023-05-23T00:25:59;96305.63;;;14.91;100.00
57594;BME280;43423;46.510;6.686;2023-05-23T00:28:25;96310.63;;;14.93;100.00
57594;BME280;43423;46.510;6.686;2023-05-23T00:30:51;96308.44;;;14.86;100.00
57594;BME280;43423;46.510;6.686;2023-05-23T00:33:16;96309.19;;;14.80;100.00
57594;BME280;43423;46.510;6.686;2023-05-23T00:35:46;96306.19;;;14.78;100.00
57594;BME280;43423;46.510;6.686;2023-05-23T00:38:12;96311.94;;;14.86;100.00
57594;BME280;43423;46.510;6.686;2023-05-23T00:40:38;96305.38;;;14.89;100.00
57594;BME280;43423;46.510;6.686;2023-05-23T00:43:04;96303.88;;;14.88;100.00
57594;BME280;43423;46.510;6.686;2023-05-23T00:45:30;96305.38;;;14.95;100.00
57594;BME280;43423;46.510;6.686;2023-05-23T00:47:55;96300.56;;;15.01;100.00
57594;BME280;43423;46.510;6.686;2023-05-23T00:50:24;96304.09;;;14.96;100.00
57594;BME280;43423;46.510;6.686;2023-05-23T00:52:54;96301.34;;;14.90;100.00
57594;BME280;43423;46.510;6.686;2023-05-23T00:55:20;96304.63;;;14.89;100.00
57594;BME280;43423;46.510;6.686;2023-05-23T00:57:45;96308.84;;;15.01;100.00
57594;BME280;43423;46.510;6.686;2023-05-23T01:00:12;96312.59;;;15.09;100.00
57594;BME280;43423;46.510;6.686;2023-05-23T01:02:45;96312.59;;;15.09;100.00
57594;BME280;43423;46.510;6.686;2023-05-23T01:05:13;96320.09;;;15.14;100.00
57594;BME280;43423;46.510;6.686;2023-05-23T01:07:45;96318.34;;;15.17;100.00
57594;BME280;43423;46.510;6.686;2023-05-23T01:10:20;96314.00;;;15.21;100.00
57594;BME280;43423;46.510;6.686;2023-05-23T01:13:28;96314.53;;;15.20;100.00
57594;BME280;43423;46.510;6.686;2023-05-23T01:16:07;96315.06;;;15.18;100.00
57594;BME280;43423;46.510;6.686;2023-05-23T01:18:39;96323.38;;;15.13;100.00
57594;BME280;43423;46.510;6.686;2023-05-23T01:21:17;96314.63;;;15.03;100.00
57594;BME280;43423;46.510;6.686;2023-05-23T01:26:46;96319.34;;;15.14;100.00
57594;BME280;43423;46.510;6.686;2023-05-23T01:29:28;96304.03;;;15.07;100.00
57594;BME280;43423;46.510;6.686;2023-05-23T01:31:57;96310.56;;;15.10;100.00
57594;BME280;43423;46.510;6.686;2023-05-23T01:34:23;96308.59;;;14.99;100.00
57594;BME280;43423;46.510;6.686;2023-05-23T01:36:51;96314.94;;;14.94;100.00
57594;BME280;43423;46.510;6.686;2023-05-23T01:39:18;96313.75;;;14.72;100.00
57594;BME280;43423;46.510;6.686;2023-05-23T01:41:44;96309.25;;;14.69;100.00
57594;BME280;43423;46.510;6.686;2023-05-23T01:44:10;96311.03;;;14.61;100.00
57594;BME280;43423;46.510;6.686;2023-05-23T01:46:36;96314.34;;;14.48;100.00
57594;BME280;43423;46.510;6.686;2023-05-23T01:49:06;96311.56;;;14.54;100.00
57594;BME280;43423;46.510;6.686;2023-05-23T01:51:32;96326.16;;;14.55;100.00
57594;BME280;43423;46.510;6.686;2023-05-23T01:53:58;96322.88;;;14.45;100.00
57594;BME280;43423;46.510;6.686;2023-05-23T01:56:26;96326.66;;;14.36;100.00
57594;BME280;43423;46.510;6.686;2023-05-23T01:58:53;96322.63;;;14.43;100.00
57594;BME280;43423;46.510;6.686;2023-05-23T02:01:18;96322.66;;;14.32;100.00
57594;BME280;43423;46.510;6.686;2023-05-23T02:03:44;96325.94;;;14.30;100.00
57594;BME280;43423;46.510;6.686;2023-05-23T02:06:10;96326.44;;;14.29;100.00
57594;BME280;43423;46.510;6.686;2023-05-23T02:08:35;96329.19;;;14.29;100.00
57594;BME280;43423;46.510;6.686;2023-05-23T02:11:01;96312.88;;;14.31;100.00
57594;BME280;43423;46.510;6.686;2023-05-23T02:13:26;96326.66;;;14.36;100.00
57594;BME280;43423;46.510;6.686;2023-05-23T02:15:52;96323.41;;;14.38;100.00
57594;BME280;43423;46.510;6.686;2023-05-23T02:18:17;96320.38;;;14.36;100.00
57594;BME280;43423;46.510;6.686;2023-05-23T02:20:43;96322.66;;;14.32;100.00
57594;BME280;43423;46.510;6.686;2023-05-23T02:23:08;96323.69;;;14.23;100.00
57594;BME280;43423;46.510;6.686;2023-05-23T02:25:34;96324.97;;;14.16;100.00
57594;BME280;43423;46.510;6.686;2023-05-23T02:28:00;96325.47;;;14.09;100.00
57594;BME280;43423;46.510;6.686;2023-05-23T02:30:25;96332.75;;;14.12;100.00
57594;BME280;43423;46.510;6.686;2023-05-23T02:32:51;96327.25;;;14.07;100.00
57594;BME280;43423;46.510;6.686;2023-05-23T02:35:17;96330.75;;;14.02;100.00
57594;BME280;43423;46.510;6.686;2023-05-23T02:37:43;96325.97;;;14.02;100.00
57594;BME280;43423;46.510;6.686;2023-05-23T02:40:08;96330.50;;;13.94;100.00
57594;BME280;43423;46.510;6.686;2023-05-23T02:42:35;96328.00;;;13.96;100.00
57594;BME280;43423;46.510;6.686;2023-05-23T02:45:00;96328.25;;;13.98;100.00
57594;BME280;43423;46.510;6.686;2023-05-23T02:47:26;96323.97;;;13.97;100.00
57594;BME280;43423;46.510;6.686;2023-05-23T02:49:51;96324.47;;;14.01;100.00
57594;BME280;43423;46.510;6.686;2023-05-23T02:52:18;96329.25;;;14.01;100.00
57594;BME280;43423;46.510;6.686;2023-05-23T02:54:44;96335.03;;;14.08;100.00
57594;BME280;43423;46.510;6.686;2023-05-23T02:57:09;96331.50;;;14.02;100.00
57594;BME280;43423;46.510;6.686;2023-05-23T02:59:35;96331.78;;;13.99;100.00
57594;BME280;43423;46.510;6.686;2023-05-23T03:02:00;96324.75;;;13.92;100.00
57594;BME280;43423;46.510;6.686;2023-05-23T03:04:26;96329.50;;;13.97;100.00
57594;BME280;43423;46.510;6.686;2023-05-23T03:06:52;96316.19;;;13.79;100.00
57594;BME280;43423;46.510;6.686;2023-05-23T03:09:19;96332.53;;;13.88;100.00
57594;BME280;43423;46.510;6.686;2023-05-23T03:11:44;96340.06;;;13.82;100.00
57594;BME280;43423;46.510;6.686;2023-05-23T03:14:11;96337.81;;;13.69;100.00
57594;BME280;43423;46.510;6.686;2023-05-23T03:16:36;96329.78;;;13.60;100.00
57594;BME280;43423;46.510;6.686;2023-05-23T03:19:03;96334.28;;;13.57;100.00
57594;BME280;43423;46.510;6.686;2023-05-23T03:21:29;96331.78;;;13.59;100.00
57594;BME280;43423;46.510;6.686;2023-05-23T03:23:56;96335.53;;;13.62;100.00
57594;BME280;43423;46.510;6.686;2023-05-23T03:26:21;96341.81;;;13.57;100.00
57594;BME280;43423;46.510;6.686;2023-05-23T03:28:48;96342.31;;;13.55;100.00
57594;BME280;43423;46.510;6.686;2023-05-23T03:31:13;96345.59;;;13.59;100.00
57594;BME280;43423;46.510;6.686;2023-05-23T03:33:39;96341.84;;;13.68;100.00
57594;BME280;43423;46.510;6.686;2023-05-23T03:36:04;96343.31;;;13.80;100.00
57594;BME280;43423;46.510;6.686;2023-05-23T03:38:31;96350.13;;;13.90;100.00
57594;BME280;43423;46.510;6.686;2023-05-23T03:40:56;96349.09;;;13.88;100.00
57594;BME280;43423;46.510;6.686;2023-05-23T03:43:22;96361.94;;;13.85;100.00
57594;BME280;43423;46.510;6.686;2023-05-23T03:45:47;96350.34;;;13.81;100.00
57594;BME280;43423;46.510;6.686;2023-05-23T03:48:13;96348.09;;;13.80;100.00
57594;BME280;43423;46.510;6.686;2023-05-23T03:50:38;96342.34;;;13.78;100.00
57594;BME280;43423;46.510;6.686;2023-05-23T03:53:04;96338.56;;;13.81;100.00
57594;BME280;43423;46.510;6.686;2023-05-23T03:55:30;96339.81;;;13.80;100.00
57594;BME280;43423;46.510;6.686;2023-05-23T03:57:56;96352.38;;;13.86;100.00
57594;BME280;43423;46.510;6.686;2023-05-23T04:00:21;96347.88;;;13.83;100.00
57594;BME280;43423;46.510;6.686;2023-05-23T04:02:47;96341.59;;;13.83;100.00
57594;BME280;43423;46.510;6.686;2023-05-23T04:05:14;96341.84;;;13.85;100.00
57594;BME280;43423;46.510;6.686;2023-05-23T04:07:40;96350.13;;;13.85;100.00
57594;BME280;43423;46.510;6.686;2023-05-23T04:10:07;96347.88;;;13.83;100.00
57594;BME280;43423;46.510;6.686;2023-05-23T04:12:33;96356.91;;;13.78;100.00
57594;BME280;43423;46.510;6.686;2023-05-23T04:14:59;96352.88;;;13.79;100.00
57594;BME280;43423;46.510;6.686;2023-05-23T04:17:25;96363.69;;;13.83;100.00
57594;BME280;43423;46.510;6.686;2023-05-23T04:19:55;96363.44;;;13.81;100.00
57594;BME280;43423;46.510;6.686;2023-05-23T04:22:21;96362.44;;;13.78;100.00
57594;BME280;43423;46.510;6.686;2023-05-23T04:24:46;96358.91;;;13.78;100.00
57594;BME280;43423;46.510;6.686;2023-05-23T04:27:12;96361.91;;;13.63;100.00
57594;BME280;43423;46.510;6.686;2023-05-23T04:29:38;96371.47;;;13.67;100.00
57594;BME280;43423;46.510;6.686;2023-05-23T04:32:04;96370.47;;;13.71;100.00
57594;BME280;43423;46.510;6.686;2023-05-23T04:34:30;96368.72;;;13.67;100.00
57594;BME280;43423;46.510;6.686;2023-05-23T04:37:01;96377.00;;;13.73;100.00
57594;BME280;43423;46.510;6.686;2023-05-23T04:39:27;96378.25;;;13.78;100.00
57594;BME280;43423;46.510;6.686;2023-05-23T04:41:54;96373.22;;;13.82;100.00
57594;BME280;43423;46.510;6.686;2023-05-23T04:44:23;96380.03;;;13.92;100.00
57594;BME280;43423;46.510;6.686;2023-05-23T04:46:51;96387.56;;;13.91;100.00
57594;BME280;43423;46.510;6.686;2023-05-23T04:49:16;96392.84;;;13.95;100.00
57594;BME280;43423;46.510;6.686;2023-05-23T04:51:42;96389.06;;;13.98;100.00
57594;BME280;43423;46.510;6.686;2023-05-23T04:54:07;96396.13;;;13.99;100.00
57594;BME280;43423;46.510;6.686;2023-05-23T04:56:33;96412.69;;;14.10;100.00
57594;BME280;43423;46.510;6.686;2023-05-23T04:58:58;96407.91;;;14.16;100.00
57594;BME280;43423;46.510;6.686;2023-05-23T05:01:24;96405.41;;;14.24;100.00
57594;BME280;43423;46.510;6.686;2023-05-23T05:03:50;96405.91;;;14.22;100.00
57594;BME280;43423;46.510;6.686;2023-05-23T05:06:17;96401.63;;;14.21;100.00
57594;BME280;43423;46.510;6.686;2023-05-23T05:08:43;96391.81;;;14.20;100.00
57594;BME280;43423;46.510;6.686;2023-05-23T05:11:09;96402.38;;;14.28;100.00
57594;BME280;43423;46.510;6.686;2023-05-23T05:13:35;96394.81;;;14.28;100.00
57594;BME280;43423;46.510;6.686;2023-05-23T05:16:01;96389.28;;;14.34;100.00
57594;BME280;43423;46.510;6.686;2023-05-23T05:18:27;96396.84;;;14.39;100.00
57594;BME280;43423;46.510;6.686;2023-05-23T05:20:53;96401.38;;;14.47;100.00
57594;BME280;43423;46.510;6.686;2023-05-23T05:23:18;96401.63;;;14.49;100.00
57594;BME280;43423;46.510;6.686;2023-05-23T05:25:44;96396.31;;;14.57;100.00
57594;BME280;43423;46.510;6.686;2023-05-23T05:28:10;96404.09;;;14.64;100.00
57594;BME280;43423;46.510;6.686;2023-05-23T05:30:36;96401.81;;;14.68;100.00
57594;BME280;43423;46.510;6.686;2023-05-23T05:33:02;96401.06;;;14.79;100.00
57594;BME280;43423;46.510;6.686;2023-05-23T05:35:30;96401.75;;;14.91;100.00
57594;BME280;43423;46.510;6.686;2023-05-23T05:37:56;96402.00;;;14.93;100.00
57594;BME280;43423;46.510;6.686;2023-05-23T05:40:22;96395.47;;;14.90;100.00
57594;BME280;43423;46.510;6.686;2023-05-23T05:42:48;96399.00;;;14.91;100.00
57594;BME280;43423;46.510;6.686;2023-05-23T05:45:13;96399.72;;;14.97;100.00
57594;BME280;43423;46.510;6.686;2023-05-23T05:47:39;96397.94;;;15.05;100.00
57594;BME280;43423;46.510;6.686;2023-05-23T05:50:05;96391.63;;;15.10;100.00
57594;BME280;43423;46.510;6.686;2023-05-23T05:52:32;96393.81;;;15.23;100.00
57594;BME280;43423;46.510;6.686;2023-05-23T05:54:59;96402.56;;;15.38;100.00
57594;BME280;43423;46.510;6.686;2023-05-23T05:57:24;96392.97;;;15.45;100.00
57594;BME280;43423;46.510;6.686;2023-05-23T05:59:50;96395.41;;;15.54;100.00
57594;BME280;43423;46.510;6.686;2023-05-23T06:02:16;96398.16;;;15.65;100.00
57594;BME280;43423;46.510;6.686;2023-05-23T06:04:42;96386.78;;;15.69;100.00
57594;BME280;43423;46.510;6.686;2023-05-23T06:07:07;96396.78;;;15.83;99.53
57594;BME280;43423;46.510;6.686;2023-05-23T06:09:33;96398.72;;;15.94;99.76
57594;BME280;43423;46.510;6.686;2023-05-23T06:11:59;96401.22;;;15.97;98.44
57594;BME280;43423;46.510;6.686;2023-05-23T06:14:25;96400.13;;;16.06;99.37
57594;BME280;43423;46.510;6.686;2023-05-23T06:16:51;96398.53;;;16.16;100.00
57594;BME280;43423;46.510;6.686;2023-05-23T06:19:16;96405.34;;;16.15;95.76
57594;BME280;43423;46.510;6.686;2023-05-23T06:21:42;96402.59;;;16.15;94.53
57594;BME280;43423;46.510;6.686;2023-05-23T06:24:07;96397.56;;;16.13;92.99
57594;BME280;43423;46.510;6.686;2023-05-23T06:26:33;96402.81;;;16.17;93.14
57594;BME280;43423;46.510;6.686;2023-05-23T06:28:58;96403.63;;;16.12;93.48
57594;BME280;43423;46.510;6.686;2023-05-23T06:31:24;96397.31;;;16.11;93.00
57594;BME280;43423;46.510;6.686;2023-05-23T06:33:49;96396.47;;;16.22;93.08
57594;BME280;43423;46.510;6.686;2023-05-23T06:36:15;96387.75;;;16.37;93.38
57594;BME280;43423;46.510;6.686;2023-05-23T06:38:41;96394.94;;;16.51;92.77
57594;BME280;43423;46.510;6.686;2023-05-23T06:41:06;96391.75;;;16.66;91.86
57594;BME280;43423;46.510;6.686;2023-05-23T06:43:32;96393.41;;;16.80;94.35
57594;BME280;43423;46.510;6.686;2023-05-23T06:45:57;96376.16;;;16.87;92.15
57594;BME280;43423;46.510;6.686;2023-05-23T06:48:23;96387.91;;;16.99;91.16
57594;BME280;43423;46.510;6.686;2023-05-23T06:50:48;96387.75;;;17.10;89.70
57594;BME280;43423;46.510;6.686;2023-05-23T06:53:14;96391.97;;;17.17;89.28
57594;BME280;43423;46.510;6.686;2023-05-23T06:55:40;96384.59;;;17.19;88.84
57594;BME280;43423;46.510;6.686;2023-05-23T06:58:06;96399.03;;;17.37;93.13
57594;BME280;43423;46.510;6.686;2023-05-23T07:00:31;96393.94;;;17.41;89.02
57594;BME280;43423;46.510;6.686;2023-05-23T07:02:57;96399.34;;;17.52;87.18
57594;BME280;43423;46.510;6.686;2023-05-23T07:05:27;96392.34;;;17.45;85.72
57594;BME280;43423;46.510;6.686;2023-05-23T07:07:53;96395.91;;;17.46;88.36
57594;BME280;43423;46.510;6.686;2023-05-23T07:10:19;96385.81;;;17.62;86.20
57594;BME280;43423;46.510;6.686;2023-05-23T07:12:45;96394.16;;;17.62;86.06
57594;BME280;43423;46.510;6.686;2023-05-23T07:15:11;96402.19;;;17.65;85.25
57594;BME280;43423;46.510;6.686;2023-05-23T07:17:37;96394.06;;;17.67;85.10
57594;BME280;43423;46.510;6.686;2023-05-23T07:20:03;96396.41;;;17.82;81.37
57594;BME280;43423;46.510;6.686;2023-05-23T07:22:29;96403.91;;;17.68;81.24
57594;BME280;43423;46.510;6.686;2023-05-23T07:24:55;96392.78;;;17.68;78.09
57594;BME280;43423;46.510;6.686;2023-05-23T07:27:21;96394.09;;;17.86;81.26
57594;BME280;43423;46.510;6.686;2023-05-23T07:29:47;96404.50;;;17.99;81.99
57594;BME280;43423;46.510;6.686;2023-05-23T07:32:12;96405.03;;;17.97;82.01
57594;BME280;43423;46.510;6.686;2023-05-23T07:34:38;96407.25;;;18.18;80.76
57594;BME280;43423;46.510;6.686;2023-05-23T07:37:04;96405.97;;;18.19;81.11
57594;BME280;43423;46.510;6.686;2023-05-23T07:39:29;96396.88;;;18.18;79.77
57594;BME280;43423;46.510;6.686;2023-05-23T07:41:55;96395.66;;;18.13;81.57
57594;BME280;43423;46.510;6.686;2023-05-23T07:44:20;96403.22;;;18.00;79.33
57594;BME280;43423;46.510;6.686;2023-05-23T07:46:46;96397.56;;;18.05;80.10
57594;BME280;43423;46.510;6.686;2023-05-23T07:49:12;96398.44;;;18.13;79.25
57594;BME280;43423;46.510;6.686;2023-05-23T07:51:37;96396.03;;;18.36;82.57
57594;BME280;43423;46.510;6.686;2023-05-23T07:54:03;96402.81;;;18.54;79.99
57594;BME280;43423;46.510;6.686;2023-05-23T07:56:28;96400.16;;;18.49;80.15
57594;BME280;43423;46.510;6.686;2023-05-23T07:58:55;96397.25;;;18.41;78.11
57594;BME280;43423;46.510;6.686;2023-05-23T08:01:21;96395.09;;;18.34;79.51
57594;BME280;43423;46.510;6.686;2023-05-23T08:03:46;96397.16;;;18.60;79.13
57594;BME280;43423;46.510;6.686;2023-05-23T08:06:12;96394.38;;;18.60;78.90
57594;BME280;43423;46.510;6.686;2023-05-23T08:08:37;96394.38;;;18.60;76.13
57594;BME280;43423;46.510;6.686;2023-05-23T08:11:03;96388.06;;;18.59;79.92
57594;BME280;43423;46.510;6.686;2023-05-23T08:13:29;96387.03;;;18.76;78.49
57594;BME280;43423;46.510;6.686;2023-05-23T08:15:55;96395.81;;;18.66;77.33
57594;BME280;43423;46.510;6.686;2023-05-23T08:18:20;96383.78;;;18.72;78.67
57594;BME280;43423;46.510;6.686;2023-05-23T08:20:46;96379.72;;;18.86;77.09
57594;BME280;43423;46.510;6.686;2023-05-23T08:23:11;96393.44;;;18.84;75.73
57594;BME280;43423;46.510;6.686;2023-05-23T08:25:38;96393.44;;;18.97;75.56
57594;BME280;43423;46.510;6.686;2023-05-23T08:28:04;96396.56;;;19.07;78.74
57594;BME280;43423;46.510;6.686;2023-05-23T08:30:29;96389.69;;;19.08;76.24
57594;BME280;43423;46.510;6.686;2023-05-23T08:32:57;96397.28;;;18.94;76.56
57594;BME280;43423;46.510;6.686;2023-05-23T08:35:23;96390.22;;;18.93;76.30
57594;BME280;43423;46.510;6.686;2023-05-23T08:37:49;96394.72;;;19.09;74.02
57594;BME280;43423;46.510;6.686;2023-05-23T08:40:19;96390.19;;;19.19;76.72
57594;BME280;43423;46.510;6.686;2023-05-23T08:42:49;96397.59;;;19.30;74.64
57594;BME280;43423;46.510;6.686;2023-05-23T08:45:15;96384.94;;;19.29;73.40
57594;BME280;43423;46.510;6.686;2023-05-23T08:47:42;96389.81;;;18.89;72.90
57594;BME280;43423;46.510;6.686;2023-05-23T08:50:13;96395.06;;;19.06;74.34
57594;BME280;43423;46.510;6.686;2023-05-23T08:52:50;96383.56;;;19.09;72.29
57594;BME280;43423;46.510;6.686;2023-05-23T08:55:18;96386.94;;;19.42;74.61
57594;BME280;43423;46.510;6.686;2023-05-23T08:57:45;96391.53;;;19.66;75.87
57594;BME280;43423;46.510;6.686;2023-05-23T09:00:11;96398.06;;;19.68;72.81
57594;BME280;43423;46.510;6.686;2023-05-23T09:02:42;96391.09;;;19.01;71.19
57594;BME280;43423;46.510;6.686;2023-05-23T09:05:08;96387.41;;;19.33;71.72
57594;BME280;43423;46.510;6.686;2023-05-23T09:07:34;96382.75;;;19.62;74.69
57594;BME280;43423;46.510;6.686;2023-05-23T09:10:00;96386.78;;;19.74;72.77
57594;BME280;43423;46.510;6.686;2023-05-23T09:12:25;96385.50;;;19.96;72.61
57594;BME280;43423;46.510;6.686;2023-05-23T09:14:51;96379.94;;;20.17;69.48
57594;BME280;43423;46.510;6.686;2023-05-23T09:17:17;96373.69;;;20.03;72.65
57594;BME280;43423;46.510;6.686;2023-05-23T09:19:44;96368.91;;;20.11;71.28
57594;BME280;43423;46.510;6.686;2023-05-23T09:22:11;96372.31;;;20.17;72.67
57594;BME280;43423;46.510;6.686;2023-05-23T09:24:37;96376.53;;;20.52;73.45
57594;BME280;43423;46.510;6.686;2023-05-23T09:27:04;96357.81;;;20.19;69.04
57594;BME280;43423;46.510;6.686;2023-05-23T09:29:30;96360.13;;;19.86;70.58
57594;BME280;43423;46.510;6.686;2023-05-23T09:32:04;96364.75;;;20.04;70.16
57594;BME280;43423;46.510;6.686;2023-05-23T09:34:34;96362.63;;;19.76;68.95
57594;BME280;43423;46.510;6.686;2023-05-23T09:37:00;96369.78;;;20.06;70.88
57594;BME280;43423;46.510;6.686;2023-05-23T09:39:25;96361.34;;;19.77;69.44
57594;BME280;43423;46.510;6.686;2023-05-23T09:41:51;96359.84;;;19.97;71.24
57594;BME280;43423;46.510;6.686;2023-05-23T09:44:22;96352.34;;;20.13;72.65
57594;BME280;43423;46.510;6.686;2023-05-23T09:46:50;96359.38;;;20.27;70.74
57594;BME280;43423;46.510;6.686;2023-05-23T09:49:18;96348.03;;;19.84;71.31
57594;BME280;43423;46.510;6.686;2023-05-23T09:51:56;96358.97;;;20.23;71.90
57594;BME280;43423;46.510;6.686;2023-05-23T09:54:22;96356.69;;;20.43;71.92
57594;BME280;43423;46.510;6.686;2023-05-23T09:56:49;96344.72;;;20.55;71.16
57594;BME280;43423;46.510;6.686;2023-05-23T09:59:17;96343.28;;;20.41;70.71
57594;BME280;43423;46.510;6.686;2023-05-23T10:01:50;96357.19;;;20.54;70.20
57594;BME280;43423;46.510;6.686;2023-05-23T10:04:20;96341.13;;;20.26;69.31
57594;BME280;43423;46.510;6.686;2023-05-23T10:06:53;96342.59;;;20.77;71.42
57594;BME280;43423;46.510;6.686;2023-05-23T10:09:23;96349.34;;;20.81;67.26
57594;BME280;43423;46.510;6.686;2023-05-23T10:14:31;96334.03;;;21.11;69.02
57594;BME280;43423;46.510;6.686;2023-05-23T10:17:35;96330.25;;;21.01;68.69
57594;BME280;43423;46.510;6.686;2023-05-23T10:20:07;96327.41;;;20.85;69.49
57594;BME280;43423;46.510;6.686;2023-05-23T10:22:37;96326.16;;;21.02;68.29
57594;BME280;43423;46.510;6.686;2023-05-23T10:25:04;96327.88;;;21.12;67.79
57594;BME280;43423;46.510;6.686;2023-05-23T10:27:30;96315.81;;;21.17;68.54
57594;BME280;43423;46.510;6.686;2023-05-23T10:29:58;96319.06;;;21.44;69.44
57594;BME280;43423;46.510;6.686;2023-05-23T10:32:25;96311.69;;;21.78;69.45
57594;BME280;43423;46.510;6.686;2023-05-23T10:35:09;96316.59;;;22.23;66.49
57594;BME280;43423;46.510;6.686;2023-05-23T10:37:55;96325.72;;;22.31;63.89
57594;BME280;43423;46.510;6.686;2023-05-23T10:40:33;96317.66;;;22.50;64.88
57594;BME280;43423;46.510;6.686;2023-05-23T10:43:02;96317.13;;;22.44;63.50
57594;BME280;43423;46.510;6.686;2023-05-23T10:45:38;96320.69;;;22.52;62.66
57594;BME280;43423;46.510;6.686;2023-05-23T10:48:22;96320.09;;;22.62;60.51
57594;BME280;43423;46.510;6.686;2023-05-23T10:51:06;96312.69;;;23.12;56.35
57594;BME280;43423;46.510;6.686;2023-05-23T10:53:34;96317.13;;;23.23;58.25
57594;BME280;43423;46.510;6.686;2023-05-23T10:56:01;96313.28;;;23.43;56.31
57594;BME280;43423;46.510;6.686;2023-05-23T10:58:29;96312.09;;;23.54;55.91
57594;BME280;43423;46.510;6.686;2023-05-23T11:00:59;96307.47;;;23.49;53.46
57594;BME280;43423;46.510;6.686;2023-05-23T11:06:32;96310.31;;;23.41;55.93
57594;BME280;43423;46.510;6.686;2023-05-23T11:16:55;96302.81;;;23.76;55.11
57594;BME280;43423;46.510;6.686;2023-05-23T11:19:22;96302.78;;;23.84;52.11
57594;BME280;43423;46.510;6.686;2023-05-23T11:22:01;96297.91;;;23.84;49.80
57594;BME280;43423;46.510;6.686;2023-05-23T11:24:54;96291.78;;;23.78;50.70
57594;BME280;43423;46.510;6.686;2023-05-23T11:27:30;96288.69;;;23.91;52.90
57594;BME280;43423;46.510;6.686;2023-05-23T11:32:33;96296.47;;;24.01;52.63
57594;BME280;43423;46.510;6.686;2023-05-23T11:35:00;96306.75;;;23.81;53.21
57594;BME280;43423;46.510;6.686;2023-05-23T11:37:27;96295.34;;;23.79;52.55
57594;BME280;43423;46.510;6.686;2023-05-23T11:39:52;96303.94;;;23.81;54.82
57594;BME280;43423;46.510;6.686;2023-05-23T11:42:18;96309.38;;;23.79;51.91
57594;BME280;43423;46.510;6.686;2023-05-23T11:44:47;96305.59;;;23.84;52.88
57594;BME280;43423;46.510;6.686;2023-05-23T11:47:13;96295.22;;;23.94;52.86
57594;BME280;43423;46.510;6.686;2023-05-23T11:49:39;96289.66;;;24.11;53.41
57594;BME280;43423;46.510;6.686;2023-05-23T11:52:05;96290.41;;;24.12;51.41
57594;BME280;43423;46.510;6.686;2023-05-23T11:54:32;96292.84;;;24.08;50.36
57594;BME280;43423;46.510;6.686;2023-05-23T11:56:58;96286.13;;;23.86;50.40
57594;BME280;43423;46.510;6.686;2023-05-23T11:59:24;96274.69;;;23.84;51.71
57594;BME280;43423;46.510;6.686;2023-05-23T12:01:54;96266.28;;;23.84;51.06
57594;BME280;43423;46.510;6.686;2023-05-23T12:04:20;96270.75;;;23.87;53.25
57594;BME280;43423;46.510;6.686;2023-05-23T12:06:47;96275.84;;;24.06;52.22
57594;BME280;43423;46.510;6.686;2023-05-23T12:09:13;96279.03;;;24.27;54.11
57594;BME280;43423;46.510;6.686;2023-05-23T12:11:40;96276.78;;;24.33;51.75
57594;BME280;43423;46.510;6.686;2023-05-23T12:14:07;96260.50;;;24.24;52.09
57594;BME280;43423;46.510;6.686;2023-05-23T12:16:33;96260.66;;;24.34;56.47
57594;BME280;43423;46.510;6.686;2023-05-23T12:19:03;96264.53;;;24.38;50.89
57594;BME280;43423;46.510;6.686;2023-05-23T12:21:46;96263.63;;;24.36;53.25
57594;BME280;43423;46.510;6.686;2023-05-23T12:24:23;96258.94;;;24.31;52.42
57594;BME280;43423;46.510;6.686;2023-05-23T12:26:51;96275.25;;;24.32;53.62
57594;BME280;43423;46.510;6.686;2023-05-23T12:29:21;96275.25;;;24.32;51.55
57594;BME280;43423;46.510;6.686;2023-05-23T12:31:47;96273.50;;;24.19;52.74
57594;BME280;43423;46.510;6.686;2023-05-23T12:34:13;96276.69;;;24.16;51.97
57594;BME280;43423;46.510;6.686;2023-05-23T12:36:40;96280.72;;;24.05;53.16
57594;BME280;43423;46.510;6.686;2023-05-23T12:39:07;96280.59;;;24.20;54.96
57594;BME280;43423;46.510;6.686;2023-05-23T12:41:33;96279.44;;;24.23;52.94
57594;BME280;43423;46.510;6.686;2023-05-23T12:43:59;96278.84;;;24.25;51.03
57594;BME280;43423;46.510;6.686;2023-05-23T12:46:26;96277.63;;;24.18;51.58
57594;BME280;43423;46.510;6.686;2023-05-23T12:48:52;96282.06;;;24.21;51.22
57594;BME280;43423;46.510;6.686;2023-05-23T12:51:18;96275.28;;;24.24;52.37
57594;BME280;43423;46.510;6.686;2023-05-23T12:53:44;96285.34;;;24.35;51.47
57594;BME280;43423;46.510;6.686;2023-05-23T12:56:10;96271.66;;;24.57;51.12
57594;BME280;43423;46.510;6.686;2023-05-23T12:58:35;96260.91;;;24.45;51.28
57594;BME280;43423;46.510;6.686;2023-05-23T13:01:01;96267.34;;;24.56;52.69
57594;BME280;43423;46.510;6.686;2023-05-23T13:03:27;96257.84;;;24.51;53.23
57594;BME280;43423;46.510;6.686;2023-05-23T13:05:55;96258.84;;;24.46;54.07
57594;BME280;43423;46.510;6.686;2023-05-23T13:08:22;96260.75;;;24.61;54.20
57594;BME280;43423;46.510;6.686;2023-05-23T13:10:48;96240.47;;;24.62;53.80
57594;BME280;43423;46.510;6.686;2023-05-23T13:13:14;96250.25;;;24.61;53.17
57594;BME280;43423;46.510;6.686;2023-05-23T13:15:39;96245.94;;;24.77;53.76